sensor_id;sensor_type;location;lat;lon;timestamp;temperature;humidity
48589;DHT22;34369;51.174;6.738;2023-08-30T00:01:56;14.80;66.80
48589;DHT22;34369;51.174;6.738;2023-08-30T00:04:29;14.80;66.90
48589;DHT22;34369;51.174;6.738;2023-08-30T00:07:02;14.80;66.80
48589;DHT22;34369;51.174;6.738;2023-08-30T00:09:34;14.80;66.90
48589;DHT22;34369;51.174;6.738;2023-08-30T00:12:07;14.80;66.90
48589;DHT22;34369;51.174;6.738;2023-08-30T00:14:40;14.80;66.90
48589;DHT22;34369;51.174;6.738;2023-08-30T00:17:14;14.80;67.00
48589;DHT22;34369;51.174;6.738;2023-08-30T00:19:46;14.70;67.00
48589;DHT22;34369;51.174;6.738;2023-08-30T00:22:21;14.80;66.90
48589;DHT22;34369;51.174;6.738;2023-08-30T00:24:54;14.80;66.80
48589;DHT22;34369;51.174;6.738;2023-08-30T00:27:26;14.80;66.80
48589;DHT22;34369;51.174;6.738;2023-08-30T00:30:00;14.70;67.00
48589;DHT22;34369;51.174;6.738;2023-08-30T00:32:33;14.80;67.20
48589;DHT22;34369;51.174;6.738;2023-08-30T00:35:06;14.80;67.20
48589;DHT22;34369;51.174;6.738;2023-08-30T00:37:39;14.80;67.10
48589;DHT22;34369;51.174;6.738;2023-08-30T00:40:11;14.80;67.00
48589;DHT22;34369;51.174;6.738;2023-08-30T00:42:43;14.80;67.00
48589;DHT22;34369;51.174;6.738;2023-08-30T00:45:16;14.80;67.00
48589;DHT22;34369;51.174;6.738;2023-08-30T00:47:50;14.80;67.00
48589;DHT22;34369;51.174;6.738;2023-08-30T00:50:23;14.80;67.00
48589;DHT22;34369;51.174;6.738;2023-08-30T00:52:56;14.80;66.80
48589;DHT22;34369;51.174;6.738;2023-08-30T00:55:28;14.80;66.70
48589;DHT22;34369;51.174;6.738;2023-08-30T00:58:01;14.70;66.50
48589;DHT22;34369;51.174;6.738;2023-08-30T01:00:33;14.70;66.60
48589;DHT22;34369;51.174;6.738;2023-08-30T01:03:08;14.70;66.50
48589;DHT22;34369;51.174;6.738;2023-08-30T01:05:40;14.70;66.50
48589;DHT22;34369;51.174;6.738;2023-08-30T01:08:12;14.60;66.50
48589;DHT22;34369;51.174;6.738;2023-08-30T01:10:53;14.50;66.50
48589;DHT22;34369;51.174;6.738;2023-08-30T01:13:31;14.50;66.80
48589;DHT22;34369;51.174;6.738;2023-08-30T01:16:05;14.50;66.50
48589;DHT22;34369;51.174;6.738;2023-08-30T01:18:39;14.50;66.40
48589;DHT22;34369;51.174;6.738;2023-08-30T01:21:21;14.40;66.60
48589;DHT22;34369;51.174;6.738;2023-08-30T01:24:00;14.40;66.60
48589;DHT22;34369;51.174;6.738;2023-08-30T01:26:39;14.30;66.50
48589;DHT22;34369;51.174;6.738;2023-08-30T01:29:19;14.30;66.70
48589;DHT22;34369;51.174;6.738;2023-08-30T01:31:53;14.30;66.70
48589;DHT22;34369;51.174;6.738;2023-08-30T01:34:26;14.20;66.50
48589;DHT22;34369;51.174;6.738;2023-08-30T01:36:58;14.10;66.60
48589;DHT22;34369;51.174;6.738;2023-08-30T01:39:32;14.10;66.50
48589;DHT22;34369;51.174;6.738;2023-08-30T01:42:08;14.10;66.50
48589;DHT22;34369;51.174;6.738;2023-08-30T01:44:43;14.00;66.60
48589;DHT22;34369;51.174;6.738;2023-08-30T01:47:16;14.00;66.90
48589;DHT22;34369;51.174;6.738;2023-08-30T01:49:50;13.90;66.90
48589;DHT22;34369;51.174;6.738;2023-08-30T01:52:23;13.90;66.90
48589;DHT22;34369;51.174;6.738;2023-08-30T01:54:58;13.90;66.90
48589;DHT22;34369;51.174;6.738;2023-08-30T01:57:32;13.80;66.80
48589;DHT22;34369;51.174;6.738;2023-08-30T02:00:07;13.70;66.80
48589;DHT22;34369;51.174;6.738;2023-08-30T02:02:40;13.70;66.90
48589;DHT22;34369;51.174;6.738;2023-08-30T02:05:14;13.60;66.70
48589;DHT22;34369;51.174;6.738;2023-08-30T02:07:51;13.60;66.90
48589;DHT22;34369;51.174;6.738;2023-08-30T02:10:31;13.50;66.90
48589;DHT22;34369;51.174;6.738;2023-08-30T02:13:07;13.50;66.90
48589;DHT22;34369;51.174;6.738;2023-08-30T02:15:42;13.50;67.00
48589;DHT22;34369;51.174;6.738;2023-08-30T02:18:14;13.50;67.10
48589;DHT22;34369;51.174;6.738;2023-08-30T02:20:47;13.50;67.10
48589;DHT22;34369;51.174;6.738;2023-08-30T02:23:23;13.30;67.10
48589;DHT22;34369;51.174;6.738;2023-08-30T02:25:55;13.30;67.20
48589;DHT22;34369;51.174;6.738;2023-08-30T02:28:27;13.30;67.20
48589;DHT22;34369;51.174;6.738;2023-08-30T02:31:01;13.30;67.50
48589;DHT22;34369;51.174;6.738;2023-08-30T02:33:33;13.30;67.60
48589;DHT22;34369;51.174;6.738;2023-08-30T02:36:05;13.30;67.70
48589;DHT22;34369;51.174;6.738;2023-08-30T02:38:38;13.20;67.70
48589;DHT22;34369;51.174;6.738;2023-08-30T02:41:10;13.10;67.70
48589;DHT22;34369;51.174;6.738;2023-08-30T02:43:44;13.10;67.60
48589;DHT22;34369;51.174;6.738;2023-08-30T02:46:17;13.10;67.60
48589;DHT22;34369;51.174;6.738;2023-08-30T02:48:50;13.10;67.60
48589;DHT22;34369;51.174;6.738;2023-08-30T02:51:22;13.00;67.60
48589;DHT22;34369;51.174;6.738;2023-08-30T02:53:55;13.00;67.60
48589;DHT22;34369;51.174;6.738;2023-08-30T02:56:27;13.00;67.70
48589;DHT22;34369;51.174;6.738;2023-08-30T02:58:59;13.00;67.80
48589;DHT22;34369;51.174;6.738;2023-08-30T03:01:33;13.00;67.80
48589;DHT22;34369;51.174;6.738;2023-08-30T03:04:06;12.90;67.90
48589;DHT22;34369;51.174;6.738;2023-08-30T03:06:38;12.90;67.90
48589;DHT22;34369;51.174;6.738;2023-08-30T03:09:10;12.90;67.80
48589;DHT22;34369;51.174;6.738;2023-08-30T03:11:44;12.80;67.80
48589;DHT22;34369;51.174;6.738;2023-08-30T03:14:17;12.80;67.70
48589;DHT22;34369;51.174;6.738;2023-08-30T03:16:50;12.80;67.70
48589;DHT22;34369;51.174;6.738;2023-08-30T03:19:22;12.80;67.70
48589;DHT22;34369;51.174;6.738;2023-08-30T03:21:55;12.70;67.70
48589;DHT22;34369;51.174;6.738;2023-08-30T03:24:27;12.70;67.70
48589;DHT22;34369;51.174;6.738;2023-08-30T03:26:59;12.70;67.70
48589;DHT22;34369;51.174;6.738;2023-08-30T03:29:32;12.60;67.80
48589;DHT22;34369;51.174;6.738;2023-08-30T03:32:06;12.60;68.00
48589;DHT22;34369;51.174;6.738;2023-08-30T03:34:38;12.60;68.00
48589;DHT22;34369;51.174;6.738;2023-08-30T03:37:10;12.50;68.00
48589;DHT22;34369;51.174;6.738;2023-08-30T03:39:42;12.50;68.00
48589;DHT22;34369;51.174;6.738;2023-08-30T03:42:15;12.50;68.10
48589;DHT22;34369;51.174;6.738;2023-08-30T03:44:47;12.50;68.20
48589;DHT22;34369;51.174;6.738;2023-08-30T03:47:21;12.50;68.20
48589;DHT22;34369;51.174;6.738;2023-08-30T03:49:53;12.40;68.20
48589;DHT22;34369;51.174;6.738;2023-08-30T03:52:25;12.40;68.20
48589;DHT22;34369;51.174;6.738;2023-08-30T03:54:57;12.40;68.20
48589;DHT22;34369;51.174;6.738;2023-08-30T03:57:29;12.30;68.00
48589;DHT22;34369;51.174;6.738;2023-08-30T04:00:02;12.40;67.90
48589;DHT22;34369;51.174;6.738;2023-08-30T04:02:36;12.30;68.00
48589;DHT22;34369;51.174;6.738;2023-08-30T04:05:09;12.30;67.90
48589;DHT22;34369;51.174;6.738;2023-08-30T04:07:41;12.30;68.10
48589;DHT22;34369;51.174;6.738;2023-08-30T04:10:14;12.30;68.20
48589;DHT22;34369;51.174;6.738;2023-08-30T04:12:46;12.20;68.20
48589;DHT22;34369;51.174;6.738;2023-08-30T04:15:18;12.30;68.40
48589;DHT22;34369;51.174;6.738;2023-08-30T04:17:53;12.20;68.50
48589;DHT22;34369;51.174;6.738;2023-08-30T04:20:25;12.20;68.70
48589;DHT22;34369;51.174;6.738;2023-08-30T04:22:57;12.20;68.90
48589;DHT22;34369;51.174;6.738;2023-08-30T04:25:34;12.20;69.10
48589;DHT22;34369;51.174;6.738;2023-08-30T04:28:06;12.30;69.10
48589;DHT22;34369;51.174;6.738;2023-08-30T04:30:39;12.30;69.10
48589;DHT22;34369;51.174;6.738;2023-08-30T04:33:13;12.30;69.30
48589;DHT22;34369;51.174;6.738;2023-08-30T04:35:51;12.30;69.50
48589;DHT22;34369;51.174;6.738;2023-08-30T04:38:24;12.30;69.70
48589;DHT22;34369;51.174;6.738;2023-08-30T04:40:57;12.30;69.60
48589;DHT22;34369;51.174;6.738;2023-08-30T04:43:31;12.30;69.70
48589;DHT22;34369;51.174;6.738;2023-08-30T04:46:06;12.30;69.90
48589;DHT22;34369;51.174;6.738;2023-08-30T04:48:40;12.40;70.20
48589;DHT22;34369;51.174;6.738;2023-08-30T04:51:12;12.40;70.60
48589;DHT22;34369;51.174;6.738;2023-08-30T04:53:44;12.50;70.70
48589;DHT22;34369;51.174;6.738;2023-08-30T04:56:18;12.50;70.90
48589;DHT22;34369;51.174;6.738;2023-08-30T04:58:50;12.50;71.20
48589;DHT22;34369;51.174;6.738;2023-08-30T05:01:23;12.50;71.40
48589;DHT22;34369;51.174;6.738;2023-08-30T05:03:57;12.60;71.60
48589;DHT22;34369;51.174;6.738;2023-08-30T05:06:30;12.60;71.90
48589;DHT22;34369;51.174;6.738;2023-08-30T05:09:04;12.70;71.90
48589;DHT22;34369;51.174;6.738;2023-08-30T05:11:37;12.70;72.00
48589;DHT22;34369;51.174;6.738;2023-08-30T05:14:09;12.80;72.00
48589;DHT22;34369;51.174;6.738;2023-08-30T05:16:43;12.80;72.10
48589;DHT22;34369;51.174;6.738;2023-08-30T05:19:18;12.90;72.20
48589;DHT22;34369;51.174;6.738;2023-08-30T05:21:51;12.90;72.20
48589;DHT22;34369;51.174;6.738;2023-08-30T05:24:25;13.00;72.20
48589;DHT22;34369;51.174;6.738;2023-08-30T05:27:00;13.00;72.30
48589;DHT22;34369;51.174;6.738;2023-08-30T05:29:38;13.10;72.50
48589;DHT22;34369;51.174;6.738;2023-08-30T05:32:10;13.10;72.50
48589;DHT22;34369;51.174;6.738;2023-08-30T05:35:00;13.10;72.60
48589;DHT22;34369;51.174;6.738;2023-08-30T05:37:33;13.20;73.20
48589;DHT22;34369;51.174;6.738;2023-08-30T05:40:08;13.30;72.60
48589;DHT22;34369;51.174;6.738;2023-08-30T05:42:41;13.30;72.70
48589;DHT22;34369;51.174;6.738;2023-08-30T05:45:16;13.40;72.60
48589;DHT22;34369;51.174;6.738;2023-08-30T05:47:49;13.50;72.50
48589;DHT22;34369;51.174;6.738;2023-08-30T05:50:23;13.50;72.30
48589;DHT22;34369;51.174;6.738;2023-08-30T05:52:56;13.60;72.20
48589;DHT22;34369;51.174;6.738;2023-08-30T05:55:28;13.60;72.10
48589;DHT22;34369;51.174;6.738;2023-08-30T05:58:01;13.70;72.00
48589;DHT22;34369;51.174;6.738;2023-08-30T06:00:35;13.70;71.80
48589;DHT22;34369;51.174;6.738;2023-08-30T06:03:12;13.80;71.60
48589;DHT22;34369;51.174;6.738;2023-08-30T06:05:45;13.90;71.40
48589;DHT22;34369;51.174;6.738;2023-08-30T06:08:19;13.90;71.30
48589;DHT22;34369;51.174;6.738;2023-08-30T06:10:51;13.90;71.10
48589;DHT22;34369;51.174;6.738;2023-08-30T06:13:25;13.90;71.00
48589;DHT22;34369;51.174;6.738;2023-08-30T06:15:57;14.00;70.90
48589;DHT22;34369;51.174;6.738;2023-08-30T06:18:31;14.00;70.90
48589;DHT22;34369;51.174;6.738;2023-08-30T06:21:09;14.00;70.90
48589;DHT22;34369;51.174;6.738;2023-08-30T06:23:42;14.10;70.90
48589;DHT22;34369;51.174;6.738;2023-08-30T06:26:14;14.10;70.80
48589;DHT22;34369;51.174;6.738;2023-08-30T06:28:47;14.20;70.70
48589;DHT22;34369;51.174;6.738;2023-08-30T06:31:19;14.30;70.50
48589;DHT22;34369;51.174;6.738;2023-08-30T06:33:52;14.40;70.70
48589;DHT22;34369;51.174;6.738;2023-08-30T06:36:27;14.40;70.60
48589;DHT22;34369;51.174;6.738;2023-08-30T06:38:59;14.50;70.50
48589;DHT22;34369;51.174;6.738;2023-08-30T06:41:34;14.50;70.20
48589;DHT22;34369;51.174;6.738;2023-08-30T06:44:06;14.70;69.80
48589;DHT22;34369;51.174;6.738;2023-08-30T06:46:39;14.70;69.60
48589;DHT22;34369;51.174;6.738;2023-08-30T06:49:11;14.80;69.30
48589;DHT22;34369;51.174;6.738;2023-08-30T06:51:46;14.80;69.00
48589;DHT22;34369;51.174;6.738;2023-08-30T06:54:18;14.90;68.90
48589;DHT22;34369;51.174;6.738;2023-08-30T06:56:57;14.90;68.70
48589;DHT22;34369;51.174;6.738;2023-08-30T06:59:30;15.00;68.60
48589;DHT22;34369;51.174;6.738;2023-08-30T07:02:02;15.00;68.50
48589;DHT22;34369;51.174;6.738;2023-08-30T07:04:35;15.00;68.40
48589;DHT22;34369;51.174;6.738;2023-08-30T07:07:09;15.10;68.30
48589;DHT22;34369;51.174;6.738;2023-08-30T07:09:44;15.10;68.00
48589;DHT22;34369;51.174;6.738;2023-08-30T07:12:21;15.20;67.60
48589;DHT22;34369;51.174;6.738;2023-08-30T07:14:55;15.30;67.30
48589;DHT22;34369;51.174;6.738;2023-08-30T07:17:27;15.30;67.00
48589;DHT22;34369;51.174;6.738;2023-08-30T07:19:59;15.40;66.70
48589;DHT22;34369;51.174;6.738;2023-08-30T07:22:37;15.40;66.50
48589;DHT22;34369;51.174;6.738;2023-08-30T07:25:09;15.50;66.20
48589;DHT22;34369;51.174;6.738;2023-08-30T07:27:44;15.50;66.20
48589;DHT22;34369;51.174;6.738;2023-08-30T07:30:17;15.50;66.20
48589;DHT22;34369;51.174;6.738;2023-08-30T07:32:49;15.60;65.80
48589;DHT22;34369;51.174;6.738;2023-08-30T07:35:23;15.70;65.90
48589;DHT22;34369;51.174;6.738;2023-08-30T07:37:57;15.70;66.20
48589;DHT22;34369;51.174;6.738;2023-08-30T07:40:29;15.80;65.90
48589;DHT22;34369;51.174;6.738;2023-08-30T07:43:01;15.90;65.60
48589;DHT22;34369;51.174;6.738;2023-08-30T07:45:35;16.00;65.30
48589;DHT22;34369;51.174;6.738;2023-08-30T07:48:07;16.10;65.30
48589;DHT22;34369;51.174;6.738;2023-08-30T07:50:40;16.20;65.40
48589;DHT22;34369;51.174;6.738;2023-08-30T07:53:15;16.30;65.00
48589;DHT22;34369;51.174;6.738;2023-08-30T07:55:49;16.40;64.60
48589;DHT22;34369;51.174;6.738;2023-08-30T07:58:24;16.50;64.30
48589;DHT22;34369;51.174;6.738;2023-08-30T08:00:58;16.60;64.70
48589;DHT22;34369;51.174;6.738;2023-08-30T08:03:31;16.70;64.20
48589;DHT22;34369;51.174;6.738;2023-08-30T08:06:13;16.80;64.10
48589;DHT22;34369;51.174;6.738;2023-08-30T08:08:47;17.00;63.30
48589;DHT22;34369;51.174;6.738;2023-08-30T08:11:20;17.00;63.40
48589;DHT22;34369;51.174;6.738;2023-08-30T08:13:53;17.20;63.10
48589;DHT22;34369;51.174;6.738;2023-08-30T08:16:28;17.20;62.90
48589;DHT22;34369;51.174;6.738;2023-08-30T08:19:01;17.40;62.80
48589;DHT22;34369;51.174;6.738;2023-08-30T08:21:36;17.50;62.60
48589;DHT22;34369;51.174;6.738;2023-08-30T08:24:11;17.50;62.00
48589;DHT22;34369;51.174;6.738;2023-08-30T08:26:43;17.60;62.30
48589;DHT22;34369;51.174;6.738;2023-08-30T08:29:16;17.80;62.20
48589;DHT22;34369;51.174;6.738;2023-08-30T08:31:48;17.80;61.80
48589;DHT22;34369;51.174;6.738;2023-08-30T08:34:20;18.00;61.20
48589;DHT22;34369;51.174;6.738;2023-08-30T08:36:53;18.10;61.10
48589;DHT22;34369;51.174;6.738;2023-08-30T08:39:28;18.20;61.00
48589;DHT22;34369;51.174;6.738;2023-08-30T08:42:02;18.30;60.50
48589;DHT22;34369;51.174;6.738;2023-08-30T08:44:36;18.50;61.10
48589;DHT22;34369;51.174;6.738;2023-08-30T08:47:11;18.60;60.90
48589;DHT22;34369;51.174;6.738;2023-08-30T08:49:52;18.90;60.70
48589;DHT22;34369;51.174;6.738;2023-08-30T08:52:26;19.20;59.90
48589;DHT22;34369;51.174;6.738;2023-08-30T08:55:01;19.40;59.80
48589;DHT22;34369;51.174;6.738;2023-08-30T08:57:35;19.60;58.60
48589;DHT22;34369;51.174;6.738;2023-08-30T09:00:08;19.70;57.80
48589;DHT22;34369;51.174;6.738;2023-08-30T09:02:42;19.80;56.50
48589;DHT22;34369;51.174;6.738;2023-08-30T09:05:16;19.80;56.10
48589;DHT22;34369;51.174;6.738;2023-08-30T09:07:50;19.70;56.20
48589;DHT22;34369;51.174;6.738;2023-08-30T09:10:26;19.60;55.90
48589;DHT22;34369;51.174;6.738;2023-08-30T09:13:00;19.60;55.90
48589;DHT22;34369;51.174;6.738;2023-08-30T09:15:47;19.50;56.60
48589;DHT22;34369;51.174;6.738;2023-08-30T09:19:00;19.40;57.10
48589;DHT22;34369;51.174;6.738;2023-08-30T09:21:33;19.40;56.70
48589;DHT22;34369;51.174;6.738;2023-08-30T09:24:06;19.20;56.80
48589;DHT22;34369;51.174;6.738;2023-08-30T09:26:47;19.20;56.80
48589;DHT22;34369;51.174;6.738;2023-08-30T09:29:22;19.20;57.20
48589;DHT22;34369;51.174;6.738;2023-08-30T09:31:55;19.10;57.20
48589;DHT22;34369;51.174;6.738;2023-08-30T09:34:28;19.00;57.40
48589;DHT22;34369;51.174;6.738;2023-08-30T09:37:00;19.00;57.40
48589;DHT22;34369;51.174;6.738;2023-08-30T09:39:33;19.00;57.60
48589;DHT22;34369;51.174;6.738;2023-08-30T09:42:07;19.00;57.90
48589;DHT22;34369;51.174;6.738;2023-08-30T09:44:39;19.00;57.80
48589;DHT22;34369;51.174;6.738;2023-08-30T09:47:13;19.00;57.50
48589;DHT22;34369;51.174;6.738;2023-08-30T09:49:46;19.00;57.30
48589;DHT22;34369;51.174;6.738;2023-08-30T09:52:21;19.00;57.30
48589;DHT22;34369;51.174;6.738;2023-08-30T09:54:56;19.00;57.00
48589;DHT22;34369;51.174;6.738;2023-08-30T09:57:30;19.00;56.90
48589;DHT22;34369;51.174;6.738;2023-08-30T10:00:03;18.90;56.50
48589;DHT22;34369;51.174;6.738;2023-08-30T10:03:12;18.90;56.30
48589;DHT22;34369;51.174;6.738;2023-08-30T10:05:47;18.80;56.00
48589;DHT22;34369;51.174;6.738;2023-08-30T10:08:21;18.70;56.60
48589;DHT22;34369;51.174;6.738;2023-08-30T10:10:54;18.60;56.40
48589;DHT22;34369;51.174;6.738;2023-08-30T10:13:29;18.60;56.60
48589;DHT22;34369;51.174;6.738;2023-08-30T10:16:03;18.50;56.30
48589;DHT22;34369;51.174;6.738;2023-08-30T10:18:36;18.50;56.40
48589;DHT22;34369;51.174;6.738;2023-08-30T10:21:12;18.40;56.50
48589;DHT22;34369;51.174;6.738;2023-08-30T10:23:46;18.40;56.50
48589;DHT22;34369;51.174;6.738;2023-08-30T10:26:21;18.30;56.90
48589;DHT22;34369;51.174;6.738;2023-08-30T10:29:19;18.20;56.90
48589;DHT22;34369;51.174;6.738;2023-08-30T10:32:04;18.20;57.10
48589;DHT22;34369;51.174;6.738;2023-08-30T10:34:37;18.20;57.10
48589;DHT22;34369;51.174;6.738;2023-08-30T10:37:10;18.10;57.00
48589;DHT22;34369;51.174;6.738;2023-08-30T10:39:48;18.10;57.10
48589;DHT22;34369;51.174;6.738;2023-08-30T10:42:22;18.00;57.70
48589;DHT22;34369;51.174;6.738;2023-08-30T10:45:00;18.00;57.90
48589;DHT22;34369;51.174;6.738;2023-08-30T10:47:36;17.90;58.80
48589;DHT22;34369;51.174;6.738;2023-08-30T10:50:10;17.80;59.30
48589;DHT22;34369;51.174;6.738;2023-08-30T10:52:43;17.70;59.60
48589;DHT22;34369;51.174;6.738;2023-08-30T10:55:27;17.60;60.10
48589;DHT22;34369;51.174;6.738;2023-08-30T10:58:01;17.50;60.50
48589;DHT22;34369;51.174;6.738;2023-08-30T11:00:39;17.30;61.10
48589;DHT22;34369;51.174;6.738;2023-08-30T11:03:14;17.20;61.80
48589;DHT22;34369;51.174;6.738;2023-08-30T11:05:47;17.00;61.90
48589;DHT22;34369;51.174;6.738;2023-08-30T11:08:21;17.00;62.20
48589;DHT22;34369;51.174;6.738;2023-08-30T11:11:03;16.90;62.80
48589;DHT22;34369;51.174;6.738;2023-08-30T11:13:37;16.80;63.40
48589;DHT22;34369;51.174;6.738;2023-08-30T11:19:30;16.70;64.80
48589;DHT22;34369;51.174;6.738;2023-08-30T11:22:04;16.70;64.40
48589;DHT22;34369;51.174;6.738;2023-08-30T11:24:40;16.60;64.70
48589;DHT22;34369;51.174;6.738;2023-08-30T11:27:16;16.60;64.80
48589;DHT22;34369;51.174;6.738;2023-08-30T11:29:49;16.60;65.10
48589;DHT22;34369;51.174;6.738;2023-08-30T11:32:23;16.60;65.20
48589;DHT22;34369;51.174;6.738;2023-08-30T11:34:56;16.60;65.60
48589;DHT22;34369;51.174;6.738;2023-08-30T11:37:30;16.50;65.70
48589;DHT22;34369;51.174;6.738;2023-08-30T11:40:04;16.50;66.20
48589;DHT22;34369;51.174;6.738;2023-08-30T11:42:38;16.50;66.70
48589;DHT22;34369;51.174;6.738;2023-08-30T11:45:10;16.50;66.70
48589;DHT22;34369;51.174;6.738;2023-08-30T11:47:47;16.60;66.60
48589;DHT22;34369;51.174;6.738;2023-08-30T11:50:22;16.60;66.80
48589;DHT22;34369;51.174;6.738;2023-08-30T11:52:56;16.60;66.80
48589;DHT22;34369;51.174;6.738;2023-08-30T11:55:28;16.60;66.90
48589;DHT22;34369;51.174;6.738;2023-08-30T11:58:02;16.60;66.40
48589;DHT22;34369;51.174;6.738;2023-08-30T12:00:35;16.60;66.50
48589;DHT22;34369;51.174;6.738;2023-08-30T12:03:13;16.60;66.50
48589;DHT22;34369;51.174;6.738;2023-08-30T12:05:46;16.60;67.00
48589;DHT22;34369;51.174;6.738;2023-08-30T12:08:20;16.60;66.90
48589;DHT22;34369;51.174;6.738;2023-08-30T12:10:54;16.50;66.80
48589;DHT22;34369;51.174;6.738;2023-08-30T12:13:28;16.50;66.90
48589;DHT22;34369;51.174;6.738;2023-08-30T12:16:02;16.50;66.90
48589;DHT22;34369;51.174;6.738;2023-08-30T12:18:36;16.50;67.00
48589;DHT22;34369;51.174;6.738;2023-08-30T12:21:10;16.50;67.20
48589;DHT22;34369;51.174;6.738;2023-08-30T12:23:44;16.40;67.40
48589;DHT22;34369;51.174;6.738;2023-08-30T12:26:20;16.40;67.80
48589;DHT22;34369;51.174;6.738;2023-08-30T12:28:52;16.40;67.80
48589;DHT22;34369;51.174;6.738;2023-08-30T12:31:26;16.40;68.20
48589;DHT22;34369;51.174;6.738;2023-08-30T12:34:13;16.40;68.50
48589;DHT22;34369;51.174;6.738;2023-08-30T12:36:46;16.40;68.70
48589;DHT22;34369;51.174;6.738;2023-08-30T12:39:18;16.40;68.70
48589;DHT22;34369;51.174;6.738;2023-08-30T12:41:50;16.50;68.80
48589;DHT22;34369;51.174;6.738;2023-08-30T12:44:22;16.50;68.70
48589;DHT22;34369;51.174;6.738;2023-08-30T12:46:55;16.50;68.60
48589;DHT22;34369;51.174;6.738;2023-08-30T12:49:29;16.50;68.60
48589;DHT22;34369;51.174;6.738;2023-08-30T12:52:02;16.50;68.50
48589;DHT22;34369;51.174;6.738;2023-08-30T12:54:35;16.50;68.40
48589;DHT22;34369;51.174;6.738;2023-08-30T12:57:08;16.50;68.40
48589;DHT22;34369;51.174;6.738;2023-08-30T12:59:43;16.50;68.30
48589;DHT22;34369;51.174;6.738;2023-08-30T13:02:16;16.40;68.40
48589;DHT22;34369;51.174;6.738;2023-08-30T13:05:29;16.40;68.50
48589;DHT22;34369;51.174;6.738;2023-08-30T13:12:14;16.40;69.60
48589;DHT22;34369;51.174;6.738;2023-08-30T13:14:48;16.40;69.10
48589;DHT22;34369;51.174;6.738;2023-08-30T13:17:20;16.40;69.40
48589;DHT22;34369;51.174;6.738;2023-08-30T13:19:57;16.40;69.60
48589;DHT22;34369;51.174;6.738;2023-08-30T13:22:31;16.50;70.10
48589;DHT22;34369;51.174;6.738;2023-08-30T13:25:05;16.50;70.10
48589;DHT22;34369;51.174;6.738;2023-08-30T13:27:40;16.60;70.00
48589;DHT22;34369;51.174;6.738;2023-08-30T13:30:12;16.60;69.80
48589;DHT22;34369;51.174;6.738;2023-08-30T13:32:46;16.60;69.60
48589;DHT22;34369;51.174;6.738;2023-08-30T13:35:18;16.70;69.40
48589;DHT22;34369;51.174;6.738;2023-08-30T13:37:53;16.70;69.40
48589;DHT22;34369;51.174;6.738;2023-08-30T13:40:26;16.70;69.60
48589;DHT22;34369;51.174;6.738;2023-08-30T13:43:00;16.70;69.50
48589;DHT22;34369;51.174;6.738;2023-08-30T13:45:46;16.70;69.40
48589;DHT22;34369;51.174;6.738;2023-08-30T13:48:21;16.70;69.30
48589;DHT22;34369;51.174;6.738;2023-08-30T13:50:55;16.70;69.10
48589;DHT22;34369;51.174;6.738;2023-08-30T13:53:30;16.80;69.10
48589;DHT22;34369;51.174;6.738;2023-08-30T13:56:03;16.70;68.80
48589;DHT22;34369;51.174;6.738;2023-08-30T13:58:35;16.70;68.70
48589;DHT22;34369;51.174;6.738;2023-08-30T14:01:19;16.70;68.90
48589;DHT22;34369;51.174;6.738;2023-08-30T14:03:53;16.70;69.30
48589;DHT22;34369;51.174;6.738;2023-08-30T14:06:26;16.70;69.00
48589;DHT22;34369;51.174;6.738;2023-08-30T14:09:09;16.70;69.00
48589;DHT22;34369;51.174;6.738;2023-08-30T14:15:47;16.60;69.40
48589;DHT22;34369;51.174;6.738;2023-08-30T14:18:20;16.60;69.20
48589;DHT22;34369;51.174;6.738;2023-08-30T14:20:59;16.60;69.10
48589;DHT22;34369;51.174;6.738;2023-08-30T14:23:35;16.60;69.50
48589;DHT22;34369;51.174;6.738;2023-08-30T14:26:09;16.60;69.40
48589;DHT22;34369;51.174;6.738;2023-08-30T14:28:44;16.60;69.30
48589;DHT22;34369;51.174;6.738;2023-08-30T14:31:16;16.60;69.20
48589;DHT22;34369;51.174;6.738;2023-08-30T14:33:49;16.50;69.30
48589;DHT22;34369;51.174;6.738;2023-08-30T14:36:22;16.60;69.60
48589;DHT22;34369;51.174;6.738;2023-08-30T14:38:56;16.60;69.90
48589;DHT22;34369;51.174;6.738;2023-08-30T14:41:31;16.60;69.80
48589;DHT22;34369;51.174;6.738;2023-08-30T14:44:08;16.60;69.60
48589;DHT22;34369;51.174;6.738;2023-08-30T14:46:49;16.60;69.40
48589;DHT22;34369;51.174;6.738;2023-08-30T14:49:22;16.60;69.10
48589;DHT22;34369;51.174;6.738;2023-08-30T14:52:07;16.50;68.90
48589;DHT22;34369;51.174;6.738;2023-08-30T14:54:42;16.50;69.00
48589;DHT22;34369;51.174;6.738;2023-08-30T14:57:17;16.50;68.60
48589;DHT22;34369;51.174;6.738;2023-08-30T14:59:50;16.40;68.50
48589;DHT22;34369;51.174;6.738;2023-08-30T15:02:23;16.40;68.30
48589;DHT22;34369;51.174;6.738;2023-08-30T15:05:10;16.30;68.50
48589;DHT22;34369;51.174;6.738;2023-08-30T15:07:46;16.30;68.70
48589;DHT22;34369;51.174;6.738;2023-08-30T15:10:23;16.30;69.80
48589;DHT22;34369;51.174;6.738;2023-08-30T15:13:13;16.30;70.90
48589;DHT22;34369;51.174;6.738;2023-08-30T15:15:59;16.40;72.20
48589;DHT22;34369;51.174;6.738;2023-08-30T15:18:39;16.60;72.60
48589;DHT22;34369;51.174;6.738;2023-08-30T15:21:15;16.70;72.10
48589;DHT22;34369;51.174;6.738;2023-08-30T15:23:51;17.00;71.90
48589;DHT22;34369;51.174;6.738;2023-08-30T15:26:39;17.10;70.80
48589;DHT22;34369;51.174;6.738;2023-08-30T15:29:18;17.30;70.50
48589;DHT22;34369;51.174;6.738;2023-08-30T15:31:52;17.50;70.20
48589;DHT22;34369;51.174;6.738;2023-08-30T15:34:53;17.60;69.40
48589;DHT22;34369;51.174;6.738;2023-08-30T15:37:26;17.80;68.80
48589;DHT22;34369;51.174;6.738;2023-08-30T15:40:00;17.90;68.50
48589;DHT22;34369;51.174;6.738;2023-08-30T15:42:40;18.00;68.50
48589;DHT22;34369;51.174;6.738;2023-08-30T15:45:16;18.10;68.00
48589;DHT22;34369;51.174;6.738;2023-08-30T15:47:49;18.10;67.80
48589;DHT22;34369;51.174;6.738;2023-08-30T15:50:29;18.20;67.00
48589;DHT22;34369;51.174;6.738;2023-08-30T15:53:02;18.30;67.00
48589;DHT22;34369;51.174;6.738;2023-08-30T15:59:02;18.40;66.20
48589;DHT22;34369;51.174;6.738;2023-08-30T16:01:38;18.40;66.50
48589;DHT22;34369;51.174;6.738;2023-08-30T16:04:12;18.50;66.10
48589;DHT22;34369;51.174;6.738;2023-08-30T16:06:48;18.50;65.80
48589;DHT22;34369;51.174;6.738;2023-08-30T16:09:21;18.50;65.90
48589;DHT22;34369;51.174;6.738;2023-08-30T16:11:54;18.60;65.70
48589;DHT22;34369;51.174;6.738;2023-08-30T16:14:27;18.60;65.60
48589;DHT22;34369;51.174;6.738;2023-08-30T16:17:02;18.60;65.40
48589;DHT22;34369;51.174;6.738;2023-08-30T16:19:38;18.60;65.30
48589;DHT22;34369;51.174;6.738;2023-08-30T16:22:15;18.60;64.50
48589;DHT22;34369;51.174;6.738;2023-08-30T16:28:08;18.60;64.00
48589;DHT22;34369;51.174;6.738;2023-08-30T16:30:40;18.70;63.90
48589;DHT22;34369;51.174;6.738;2023-08-30T16:33:15;18.60;63.60
48589;DHT22;34369;51.174;6.738;2023-08-30T16:35:50;18.60;63.40